Time;durP1;ratioP1;P1;durP2;ratioP2;P2;SDS_P1;SDS_P2;PMS_P1;PMS_P2;Temp;Humidity;BMP_temperature;BMP_pressure;BME280_temperature;BME280_humidity;BME280_pressure;Samples;Min_cycle;Max_cycle;Signal;HPM_P1;HPM_P2
2021/12/23 00:00:51;;;;;;;36.20;17.88;;;1.80;99.90;;;;;;5035848;28;20022;-77
2021/12/23 00:03:17;;;;;;;33.30;18.13;;;1.80;99.90;;;;;;5028781;28;20511;-77
2021/12/23 00:05:42;;;;;;;33.10;16.77;;;1.80;99.90;;;;;;5029121;28;20025;-77
2021/12/23 00:08:08;;;;;;;35.05;17.98;;;1.80;99.90;;;;;;5029120;28;20382;-77
2021/12/23 00:10:34;;;;;;;33.17;17.75;;;1.80;99.90;;;;;;5029009;28;20048;-76
2021/12/23 00:12:59;;;;;;;34.33;17.77;;;1.80;99.90;;;;;;5028958;28;20110;-76
2021/12/23 00:15:31;;;;;;;32.28;17.30;;;1.70;99.90;;;;;;5029301;28;20158;-76
2021/12/23 00:23:36;;;;;;;35.03;17.58;;;1.70;99.90;;;;;;5017677;28;20152;-75
2021/12/23 00:26:02;;;;;;;33.60;18.77;;;1.70;99.90;;;;;;5028758;28;20576;-77
2021/12/23 00:28:30;;;;;;;35.20;18.50;;;1.70;99.90;;;;;;5028458;28;20060;-75
2021/12/23 00:30:55;;;;;;;32.97;18.83;;;1.60;99.90;;;;;;5027567;28;20026;-75
2021/12/23 00:33:22;;;;;;;39.40;18.98;;;1.60;99.90;;;;;;5028832;28;20033;-76
2021/12/23 00:35:49;;;;;;;36.42;18.48;;;1.60;99.90;;;;;;5030088;28;20355;-77
2021/12/23 00:38:23;;;;;;;35.95;19.15;;;1.60;99.90;;;;;;5031146;28;20029;-76
2021/12/23 00:40:49;;;;;;;38.05;19.35;;;1.60;99.90;;;;;;5029972;28;20021;-75
2021/12/23 00:43:15;;;;;;;40.95;20.73;;;1.60;99.90;;;;;;5029348;28;20504;-76
2021/12/23 00:45:40;;;;;;;39.03;21.05;;;1.50;99.90;;;;;;5029488;28;20017;-76
2021/12/23 00:48:06;;;;;;;41.80;20.65;;;1.50;99.90;;;;;;5030075;28;20030;-77
2021/12/23 00:50:31;;;;;;;37.50;20.75;;;1.50;99.90;;;;;;5029408;28;20025;-77
2021/12/23 00:53:00;;;;;;;39.75;20.17;;;1.50;99.90;;;;;;5029069;28;20379;-76
2021/12/23 00:55:26;;;;;;;40.10;20.23;;;1.50;99.90;;;;;;5029257;28;20026;-76
2021/12/23 00:57:51;;;;;;;40.55;21.33;;;1.50;99.90;;;;;;5029242;28;20018;-76
2021/12/23 01:00:20;;;;;;;40.28;20.73;;;1.50;99.90;;;;;;5036787;28;20473;-75
2021/12/23 01:02:47;;;;;;;36.78;20.50;;;1.50;99.90;;;;;;5064064;27;20037;-76
2021/12/23 01:05:17;;;;;;;40.35;21.45;;;1.50;99.90;;;;;;5048858;28;20013;-77
2021/12/23 01:07:43;;;;;;;42.45;21.27;;;1.50;99.90;;;;;;5048428;28;20024;-76
2021/12/23 01:10:10;;;;;;;41.10;20.75;;;1.40;99.90;;;;;;5049038;28;20488;-77
2021/12/23 01:13:19;;;;;;;41.05;21.60;;;1.40;99.90;;;;;;5047336;27;20036;-77
2021/12/23 01:17:56;;;;;;;46.17;22.65;;;1.30;99.90;;;;;;5048840;28;20032;-76
2021/12/23 01:20:31;;;;;;;42.35;22.75;;;1.30;99.90;;;;;;5048366;28;20366;-77
2021/12/23 01:23:04;;;;;;;42.95;21.38;;;1.30;99.90;;;;;;5042277;28;20074;-74
2021/12/23 01:25:32;;;;;;;42.45;23.13;;;1.30;99.90;;;;;;5047664;28;20024;-75
2021/12/23 01:27:57;;;;;;;42.47;22.42;;;1.20;99.90;;;;;;5047418;28;20089;-75
2021/12/23 01:30:24;;;;;;;45.60;23.17;;;1.20;99.90;;;;;;5047539;28;20037;-75
2021/12/23 01:32:51;;;;;;;44.45;22.17;;;1.20;99.90;;;;;;5047840;28;20027;-75
2021/12/23 01:35:17;;;;;;;43.90;23.02;;;1.10;99.90;;;;;;5047938;28;20489;-75
2021/12/23 01:37:43;;;;;;;42.20;22.33;;;1.10;99.90;;;;;;5048260;27;20021;-75
2021/12/23 01:40:12;;;;;;;45.75;23.27;;;1.10;99.90;;;;;;5047606;28;20032;-75
2021/12/23 01:42:38;;;;;;;42.78;23.00;;;1.10;99.90;;;;;;5047307;28;20020;-75
2021/12/23 01:45:10;;;;;;;48.30;24.20;;;1.00;99.90;;;;;;5047922;28;20418;-75
2021/12/23 01:47:35;;;;;;;58.28;26.65;;;1.10;99.90;;;;;;5047551;28;20025;-75
2021/12/23 01:50:01;;;;;;;54.78;27.55;;;1.00;99.90;;;;;;5048145;28;20118;-75
2021/12/23 01:52:27;;;;;;;55.55;28.25;;;1.00;99.90;;;;;;5048109;28;20431;-75
2021/12/23 01:54:54;;;;;;;62.10;29.38;;;1.00;99.90;;;;;;5050699;28;20025;-75
2021/12/23 01:57:20;;;;;;;62.47;30.80;;;1.00;99.90;;;;;;5050882;28;20052;-76
2021/12/23 01:59:45;;;;;;;62.72;30.63;;;1.00;99.90;;;;;;5050670;28;20048;-76
2021/12/23 02:02:11;;;;;;;60.53;30.38;;;1.00;99.90;;;;;;5050597;27;20017;-76
2021/12/23 02:04:37;;;;;;;62.97;32.38;;;1.00;99.90;;;;;;5050645;28;20022;-76
2021/12/23 02:07:03;;;;;;;67.38;33.25;;;1.00;99.90;;;;;;5050684;27;20273;-76
2021/12/23 02:09:28;;;;;;;72.72;34.53;;;1.00;99.90;;;;;;5050615;27;20021;-76
2021/12/23 02:11:55;;;;;;;70.53;33.88;;;1.00;99.90;;;;;;5050869;27;20036;-76
2021/12/23 02:14:22;;;;;;;71.95;34.25;;;1.00;99.90;;;;;;5050606;28;20013;-76
2021/12/23 02:16:48;;;;;;;70.78;35.72;;;1.00;99.90;;;;;;5050564;28;20235;-76
2021/12/23 02:19:18;;;;;;;75.88;36.88;;;1.00;99.90;;;;;;5050875;27;20017;-76
2021/12/23 02:21:48;;;;;;;74.55;37.22;;;1.00;99.90;;;;;;5050049;28;20067;-76
2021/12/23 02:24:14;;;;;;;81.78;37.83;;;1.00;99.90;;;;;;5050298;28;20473;-76
2021/12/23 02:26:41;;;;;;;79.93;39.28;;;1.00;99.90;;;;;;5050533;28;20408;-76
2021/12/23 02:29:08;;;;;;;87.28;39.70;;;1.00;99.90;;;;;;5048814;28;20041;-76
2021/12/23 02:31:34;;;;;;;84.35;39.90;;;1.00;99.90;;;;;;5065493;28;20071;-76
2021/12/23 02:34:00;;;;;;;91.80;42.05;;;1.00;99.90;;;;;;5051170;28;20505;-78
2021/12/23 02:36:30;;;;;;;97.00;44.35;;;1.00;99.90;;;;;;5051122;28;20111;-76
2021/12/23 02:38:57;;;;;;;101.38;44.00;;;0.90;99.90;;;;;;5049953;28;20033;-77
2021/12/23 02:41:23;;;;;;;99.88;44.03;;;0.90;99.90;;;;;;5050033;28;20048;-76
2021/12/23 02:43:48;;;;;;;100.40;44.20;;;0.90;99.90;;;;;;5049793;28;20033;-76
2021/12/23 02:46:18;;;;;;;94.00;42.55;;;0.90;99.90;;;;;;5050017;27;20029;-76
2021/12/23 02:48:44;;;;;;;108.07;45.45;;;0.90;99.90;;;;;;5050493;28;20020;-76
2021/12/23 02:51:11;;;;;;;105.03;44.03;;;0.90;99.90;;;;;;5048693;28;20508;-76
2021/12/23 02:53:38;;;;;;;110.63;47.08;;;0.90;99.90;;;;;;5049853;28;20056;-76
2021/12/23 02:56:07;;;;;;;113.78;48.50;;;0.90;99.90;;;;;;5049937;28;20142;-76
2021/12/23 02:58:33;;;;;;;113.95;46.45;;;0.90;99.90;;;;;;5050066;28;20073;-76
2021/12/23 03:01:03;;;;;;;106.43;44.22;;;0.90;99.90;;;;;;5034465;28;20118;-76
2021/12/23 03:03:28;;;;;;;99.85;43.78;;;0.90;99.90;;;;;;5029743;28;20025;-76
2021/12/23 03:05:57;;;;;;;96.95;41.65;;;0.90;99.90;;;;;;5028291;28;20190;-76
2021/12/23 03:08:43;;;;;;;100.07;43.20;;;0.90;99.90;;;;;;5029637;28;20535;-76
2021/12/23 03:11:13;;;;;;;100.18;42.35;;;0.90;99.90;;;;;;5029786;28;20022;-76
2021/12/23 03:13:39;;;;;;;97.47;41.25;;;0.90;99.90;;;;;;5029595;28;20181;-76
2021/12/23 03:16:06;;;;;;;98.13;42.22;;;0.90;99.90;;;;;;5029538;28;20018;-75
2021/12/23 03:18:32;;;;;;;93.80;41.00;;;0.80;99.90;;;;;;5029442;28;20034;-76
2021/12/23 03:20:59;;;;;;;97.40;41.45;;;0.90;99.90;;;;;;5029641;28;20551;-76
2021/12/23 03:23:25;;;;;;;104.13;43.03;;;0.80;99.90;;;;;;5029353;28;20112;-76
2021/12/23 03:25:51;;;;;;;95.88;43.42;;;0.80;99.90;;;;;;5029552;28;20032;-76
2021/12/23 03:28:17;;;;;;;105.50;42.80;;;0.80;99.90;;;;;;5029224;28;20025;-76
2021/12/23 03:30:43;;;;;;;97.30;41.58;;;0.80;99.90;;;;;;5029769;28;20296;-76
2021/12/23 03:33:08;;;;;;;100.85;42.75;;;0.80;99.90;;;;;;5029156;28;20029;-76
2021/12/23 03:35:35;;;;;;;100.05;41.33;;;0.90;99.90;;;;;;5029218;28;20028;-75
2021/12/23 03:38:01;;;;;;;103.95;43.50;;;0.90;99.90;;;;;;5029232;28;20044;-75
2021/12/23 03:40:27;;;;;;;92.07;39.28;;;0.90;99.90;;;;;;5029075;28;20022;-75
2021/12/23 03:42:53;;;;;;;103.70;42.05;;;0.90;99.90;;;;;;5029305;28;20138;-76
2021/12/23 03:45:18;;;;;;;100.25;41.40;;;0.90;99.90;;;;;;5029042;28;20099;-76
2021/12/23 03:47:48;;;;;;;97.95;40.58;;;0.90;99.90;;;;;;5029168;28;20471;-76
2021/12/23 03:50:17;;;;;;;99.72;39.35;;;0.90;99.90;;;;;;5029283;28;20020;-76
2021/12/23 03:52:44;;;;;;;99.30;40.40;;;0.90;99.90;;;;;;5029056;28;20057;-76
2021/12/23 03:55:10;;;;;;;100.47;39.95;;;0.90;99.90;;;;;;5028957;28;20026;-76
2021/12/23 03:57:36;;;;;;;105.25;41.40;;;0.90;99.90;;;;;;5028984;28;20054;-77
2021/12/23 04:00:04;;;;;;;104.47;41.78;;;0.90;99.90;;;;;;5035959;28;20497;-76
2021/12/23 04:02:30;;;;;;;107.85;41.70;;;0.90;99.90;;;;;;5048745;28;20453;-75
2021/12/23 04:04:56;;;;;;;106.35;41.63;;;0.90;99.90;;;;;;5048744;27;20063;-75
2021/12/23 04:07:21;;;;;;;103.43;40.65;;;0.90;99.90;;;;;;5048831;27;20017;-75
2021/12/23 04:09:47;;;;;;;112.43;41.70;;;0.90;99.90;;;;;;5048510;27;20411;-75
2021/12/23 04:12:12;;;;;;;107.57;40.58;;;1.00;99.90;;;;;;5048707;27;20378;-75
2021/12/23 04:14:38;;;;;;;112.93;42.83;;;1.00;99.90;;;;;;5048430;27;20029;-76
2021/12/23 04:17:04;;;;;;;106.38;41.65;;;1.00;99.90;;;;;;5048151;27;20017;-75
2021/12/23 04:19:31;;;;;;;105.07;41.15;;;1.00;99.90;;;;;;5048345;27;20029;-76
2021/12/23 04:21:57;;;;;;;108.50;41.88;;;1.00;99.90;;;;;;5048365;28;20073;-76
2021/12/23 04:24:24;;;;;;;107.00;40.90;;;1.00;99.90;;;;;;5065202;27;20037;-76
2021/12/23 04:26:50;;;;;;;110.63;41.45;;;1.00;99.90;;;;;;5048470;28;20077;-76
2021/12/23 04:29:15;;;;;;;111.47;43.30;;;1.10;99.90;;;;;;5048094;28;20061;-76
2021/12/23 04:31:41;;;;;;;116.35;43.78;;;1.10;99.90;;;;;;5048458;27;20029;-76
2021/12/23 04:34:07;;;;;;;108.88;42.40;;;1.10;99.90;;;;;;5048534;28;20455;-76
2021/12/23 04:36:33;;;;;;;107.50;41.50;;;1.10;99.90;;;;;;5048185;28;20478;-76
2021/12/23 04:39:01;;;;;;;103.25;41.45;;;1.10;99.90;;;;;;5048413;27;20050;-76
2021/12/23 04:41:28;;;;;;;101.18;40.38;;;1.10;99.90;;;;;;5048164;27;20082;-76
2021/12/23 04:43:54;;;;;;;104.03;40.47;;;1.10;99.90;;;;;;5046868;28;20130;-76
2021/12/23 04:46:21;;;;;;;110.80;43.33;;;1.10;99.90;;;;;;5047035;28;20032;-77
2021/12/23 04:48:47;;;;;;;108.85;42.08;;;1.20;99.90;;;;;;5063415;28;20051;-76
2021/12/23 04:51:14;;;;;;;105.75;40.58;;;1.20;99.90;;;;;;5048263;28;20074;-76
2021/12/23 04:53:40;;;;;;;109.22;41.85;;;1.20;99.90;;;;;;5046813;28;20473;-76
2021/12/23 04:56:06;;;;;;;108.35;41.50;;;1.20;99.90;;;;;;5047751;28;20036;-76
2021/12/23 04:58:32;;;;;;;107.25;42.05;;;1.20;99.90;;;;;;5047920;27;20037;-76
2021/12/23 05:00:58;;;;;;;108.93;41.00;;;1.10;99.90;;;;;;5047708;27;20029;-76
2021/12/23 05:03:24;;;;;;;105.40;40.63;;;1.20;99.90;;;;;;5047915;28;20485;-76
2021/12/23 05:05:51;;;;;;;106.70;40.90;;;1.10;99.90;;;;;;5047762;28;20028;-76
2021/12/23 05:08:18;;;;;;;105.88;39.78;;;1.10;99.90;;;;;;5047759;28;20058;-76
2021/12/23 05:10:44;;;;;;;106.95;40.53;;;1.10;99.90;;;;;;5047488;28;20021;-76
2021/12/23 05:13:10;;;;;;;96.40;39.45;;;1.10;99.90;;;;;;5047747;28;20017;-76
2021/12/23 05:15:36;;;;;;;105.80;39.65;;;1.10;99.90;;;;;;5047587;28;20438;-76
2021/12/23 05:18:02;;;;;;;96.47;38.80;;;1.10;99.90;;;;;;5047639;28;20041;-76
2021/12/23 05:20:28;;;;;;;103.20;40.25;;;1.10;99.90;;;;;;5046189;28;20028;-76
2021/12/23 05:22:54;;;;;;;95.82;38.30;;;1.10;99.90;;;;;;5047508;28;20037;-77
2021/12/23 05:25:20;;;;;;;99.88;39.72;;;1.20;99.90;;;;;;5046151;28;20021;-76
2021/12/23 05:27:46;;;;;;;94.18;37.67;;;1.20;99.90;;;;;;5046999;27;20029;-76
2021/12/23 05:30:15;;;;;;;94.63;38.40;;;1.20;99.90;;;;;;5046073;27;20102;-74
2021/12/23 05:32:42;;;;;;;98.07;37.15;;;1.20;99.90;;;;;;5046172;28;20021;-75
2021/12/23 05:35:09;;;;;;;94.40;36.50;;;1.20;99.90;;;;;;5047371;28;20021;-75
2021/12/23 05:37:35;;;;;;;95.65;37.00;;;1.20;99.90;;;;;;5047663;28;20025;-75
2021/12/23 05:40:01;;;;;;;95.65;36.58;;;1.20;99.90;;;;;;5047192;28;20455;-75
2021/12/23 05:42:27;;;;;;;97.45;36.90;;;1.20;99.90;;;;;;5047115;28;20120;-77
2021/12/23 05:44:53;;;;;;;94.30;36.97;;;1.30;99.90;;;;;;5047227;27;20104;-77
2021/12/23 05:47:18;;;;;;;95.03;37.00;;;1.30;99.90;;;;;;5047161;27;20025;-76
2021/12/23 05:49:44;;;;;;;89.30;35.60;;;1.30;99.90;;;;;;5047291;27;20021;-77
2021/12/23 05:52:09;;;;;;;93.10;36.63;;;1.30;99.90;;;;;;5047126;27;20064;-77
2021/12/23 05:54:35;;;;;;;99.75;37.65;;;1.30;99.90;;;;;;5047662;27;20025;-76
2021/12/23 05:57:02;;;;;;;96.30;36.33;;;1.30;99.90;;;;;;5046898;27;20022;-77
2021/12/23 05:59:32;;;;;;;93.20;37.40;;;1.30;99.90;;;;;;5030484;28;20021;-76
2021/12/23 06:01:58;;;;;;;94.57;36.53;;;1.30;99.90;;;;;;5047096;28;20029;-76
2021/12/23 06:04:25;;;;;;;94.10;36.60;;;1.30;99.90;;;;;;5047021;28;20021;-77
2021/12/23 06:06:50;;;;;;;92.15;36.20;;;1.40;99.90;;;;;;5047278;28;20526;-77
2021/12/23 06:09:16;;;;;;;90.88;34.95;;;1.40;99.90;;;;;;5046656;27;20096;-76
2021/12/23 06:11:42;;;;;;;92.55;36.63;;;1.40;99.90;;;;;;5046983;27;20053;-76
2021/12/23 06:14:07;;;;;;;87.55;35.05;;;1.40;99.90;;;;;;5046926;28;20470;-76
2021/12/23 06:16:33;;;;;;;91.53;35.40;;;1.50;99.90;;;;;;5046890;28;20021;-76
2021/12/23 06:18:59;;;;;;;89.13;35.35;;;1.40;99.90;;;;;;5047302;27;20351;-76
2021/12/23 06:21:28;;;;;;;84.63;34.80;;;1.50;99.90;;;;;;5047154;27;20040;-76
2021/12/23 06:23:54;;;;;;;96.82;36.65;;;1.40;99.90;;;;;;5047165;28;20021;-76
2021/12/23 06:26:20;;;;;;;90.30;36.67;;;1.50;99.90;;;;;;5046771;28;20024;-76
2021/12/23 06:28:46;;;;;;;99.65;37.25;;;1.50;99.90;;;;;;5034867;28;20045;-76
2021/12/23 06:31:11;;;;;;;93.85;36.13;;;1.50;99.90;;;;;;5029074;28;20104;-76
2021/12/23 06:33:37;;;;;;;94.75;35.92;;;1.60;99.90;;;;;;5027956;28;20079;-76
2021/12/23 06:36:05;;;;;;;95.68;37.58;;;1.60;99.90;;;;;;5041113;28;20069;-76
2021/12/23 06:38:31;;;;;;;89.85;35.60;;;1.60;99.90;;;;;;5046180;28;20013;-76
2021/12/23 06:40:56;;;;;;;92.65;35.05;;;1.60;99.90;;;;;;5049306;28;20029;-76
2021/12/23 06:43:22;;;;;;;92.22;36.35;;;1.70;99.90;;;;;;5049033;28;20021;-75
2021/12/23 06:45:48;;;;;;;87.63;34.83;;;1.70;99.90;;;;;;5050189;28;20032;-75
2021/12/23 06:48:13;;;;;;;85.28;33.72;;;1.70;99.90;;;;;;5047658;27;20113;-75
2021/12/23 06:50:39;;;;;;;85.72;33.17;;;1.70;99.90;;;;;;5030093;28;20451;-75
2021/12/23 06:53:05;;;;;;;87.35;33.08;;;1.70;99.90;;;;;;5029818;28;20018;-76
2021/12/23 06:55:30;;;;;;;84.70;34.20;;;1.70;99.90;;;;;;5029708;28;20033;-76
2021/12/23 06:57:57;;;;;;;85.28;34.30;;;1.70;99.90;;;;;;5046616;27;20120;-75
2021/12/23 07:00:25;;;;;;;85.50;34.55;;;1.70;99.90;;;;;;5034205;28;20021;-75
2021/12/23 07:02:52;;;;;;;83.70;33.92;;;1.70;99.90;;;;;;5031789;28;20029;-75
2021/12/23 07:05:17;;;;;;;93.60;34.70;;;1.70;99.90;;;;;;5031943;28;20056;-76
2021/12/23 07:10:39;;;;;;;85.07;34.40;;;1.70;99.90;;;;;;5029775;28;20026;-76
2021/12/23 07:13:06;;;;;;;85.72;33.13;;;1.70;99.90;;;;;;5039492;28;20033;-77
2021/12/23 07:15:33;;;;;;;81.97;33.67;;;1.70;99.90;;;;;;5043517;28;20037;-75
2021/12/23 07:18:00;;;;;;;85.78;33.67;;;1.70;99.90;;;;;;5047938;28;20113;-77
2021/12/23 07:20:26;;;;;;;85.95;33.70;;;1.80;99.90;;;;;;5032876;28;20081;-77
2021/12/23 07:22:52;;;;;;;85.57;33.63;;;1.80;99.90;;;;;;5042264;28;20037;-76
2021/12/23 07:25:18;;;;;;;90.28;34.50;;;1.80;99.90;;;;;;5036929;28;20037;-76
2021/12/23 07:27:44;;;;;;;94.50;34.72;;;1.80;99.90;;;;;;5037332;28;20033;-75
2021/12/23 07:30:14;;;;;;;87.78;33.10;;;1.80;99.90;;;;;;5043867;28;20041;-75
2021/12/23 07:32:40;;;;;;;91.63;34.88;;;1.80;99.90;;;;;;5041011;28;20036;-75
2021/12/23 07:35:06;;;;;;;89.00;33.40;;;1.80;99.90;;;;;;5041262;28;20057;-75
2021/12/23 07:37:32;;;;;;;84.45;33.75;;;1.80;99.90;;;;;;5040406;28;20483;-75
2021/12/23 07:39:58;;;;;;;84.68;34.00;;;1.80;99.90;;;;;;5044743;28;20033;-75
2021/12/23 07:42:25;;;;;;;87.18;33.13;;;1.90;99.90;;;;;;5044142;27;20032;-75
2021/12/23 07:44:52;;;;;;;88.18;34.60;;;1.90;99.90;;;;;;5046028;28;20264;-76
2021/12/23 07:47:18;;;;;;;81.40;32.47;;;1.90;99.90;;;;;;5042300;28;20108;-76
2021/12/23 07:49:43;;;;;;;84.72;32.42;;;1.90;99.90;;;;;;5037181;27;20147;-78
2021/12/23 07:52:09;;;;;;;83.78;32.60;;;1.90;99.90;;;;;;5039521;28;20040;-75
2021/12/23 07:54:36;;;;;;;82.63;33.88;;;1.90;99.90;;;;;;5047539;27;20408;-76
2021/12/23 07:57:02;;;;;;;83.63;33.08;;;1.90;99.90;;;;;;5033056;28;20401;-78
2021/12/23 07:59:28;;;;;;;85.97;33.00;;;2.00;99.90;;;;;;5041978;28;20060;-76
2021/12/23 08:01:57;;;;;;;82.25;33.92;;;2.00;99.90;;;;;;5044946;28;20567;-76
2021/12/23 08:04:24;;;;;;;82.53;32.83;;;1.90;99.90;;;;;;5035686;28;20022;-75
2021/12/23 08:06:55;;;;;;;79.95;34.63;;;1.90;99.90;;;;;;5038756;28;20025;-75
2021/12/23 08:09:22;;;;;;;81.20;33.88;;;1.90;99.90;;;;;;5036354;28;20132;-75
2021/12/23 08:11:49;;;;;;;83.07;31.85;;;1.90;99.90;;;;;;5032619;28;20037;-75
2021/12/23 08:14:14;;;;;;;85.90;32.97;;;2.00;99.90;;;;;;5034511;28;20025;-75
2021/12/23 08:16:40;;;;;;;85.20;33.35;;;1.90;99.90;;;;;;5034351;28;20010;-75
2021/12/23 08:19:06;;;;;;;85.15;33.50;;;1.90;99.90;;;;;;5036384;27;20041;-75
2021/12/23 08:21:31;;;;;;;89.97;33.50;;;1.90;99.90;;;;;;5036572;28;20029;-75
2021/12/23 08:23:57;;;;;;;84.75;32.50;;;1.90;99.90;;;;;;5031613;28;20038;-75
2021/12/23 08:26:27;;;;;;;87.55;33.28;;;1.90;99.90;;;;;;5033263;27;20401;-76
2021/12/23 08:28:54;;;;;;;91.40;33.97;;;1.90;99.90;;;;;;5032812;28;20085;-76
2021/12/23 08:31:21;;;;;;;88.20;33.90;;;2.00;99.90;;;;;;5031683;28;20105;-75
2021/12/23 08:33:47;;;;;;;83.35;33.10;;;2.00;99.90;;;;;;5036867;28;20017;-75
2021/12/23 08:36:13;;;;;;;87.53;35.03;;;1.90;99.90;;;;;;5031805;28;20073;-75
2021/12/23 08:38:43;;;;;;;83.90;33.40;;;1.90;99.90;;;;;;5032080;28;20518;-75
2021/12/23 08:41:09;;;;;;;77.88;31.75;;;2.00;99.90;;;;;;5031646;28;20041;-75
2021/12/23 08:43:35;;;;;;;83.80;33.17;;;2.00;99.90;;;;;;5035896;28;20024;-75
2021/12/23 08:46:01;;;;;;;83.13;32.95;;;2.00;99.90;;;;;;5035584;28;20529;-75
2021/12/23 08:48:26;;;;;;;85.22;32.67;;;2.00;99.90;;;;;;5036565;28;20029;-75
2021/12/23 08:50:52;;;;;;;86.55;32.47;;;2.00;99.90;;;;;;5033312;28;20032;-75
2021/12/23 08:53:18;;;;;;;82.45;32.50;;;2.10;99.90;;;;;;5029464;27;20021;-75
2021/12/23 08:55:44;;;;;;;90.32;33.30;;;2.10;99.90;;;;;;5026819;28;20022;-75
2021/12/23 08:58:10;;;;;;;81.43;32.13;;;2.10;99.90;;;;;;5027080;28;20029;-75
2021/12/23 09:00:38;;;;;;;81.07;31.95;;;2.10;99.90;;;;;;5034579;28;20021;-75
2021/12/23 09:03:05;;;;;;;87.55;32.50;;;2.10;99.90;;;;;;5035390;28;20562;-75
2021/12/23 09:05:32;;;;;;;80.68;31.63;;;2.10;99.90;;;;;;5032982;28;20025;-75
2021/12/23 09:07:58;;;;;;;81.57;31.95;;;2.10;99.90;;;;;;5037088;28;20538;-75
2021/12/23 09:10:24;;;;;;;83.22;32.90;;;2.10;99.90;;;;;;5033319;28;20022;-75
2021/12/23 09:12:51;;;;;;;81.75;31.88;;;2.10;99.90;;;;;;5035288;28;20044;-75
2021/12/23 09:15:18;;;;;;;84.55;32.55;;;2.10;99.90;;;;;;5033634;28;20062;-75
2021/12/23 09:17:44;;;;;;;81.55;33.17;;;2.10;99.90;;;;;;5033039;28;20029;-75
2021/12/23 09:20:11;;;;;;;79.40;31.42;;;2.20;99.90;;;;;;5027698;28;20074;-75
2021/12/23 09:22:38;;;;;;;79.28;31.25;;;2.20;99.90;;;;;;5029080;28;20129;-75
2021/12/23 09:25:11;;;;;;;82.65;32.55;;;2.20;99.90;;;;;;5033403;28;20032;-75
2021/12/23 09:33:04;;;;;;;;;;;2.30;99.90;;;;;;5039597;28;20044;-76
2021/12/23 09:35:32;;;;;;;78.68;32.00;;;2.30;99.90;;;;;;5033745;28;20361;-76
2021/12/23 09:37:58;;;;;;;79.38;31.23;;;2.40;99.90;;;;;;5029921;28;20053;-76
2021/12/23 09:40:25;;;;;;;83.50;32.50;;;2.40;99.90;;;;;;5029795;28;20527;-76
2021/12/23 09:42:52;;;;;;;82.65;32.05;;;2.40;99.90;;;;;;5029302;28;20090;-76
2021/12/23 09:45:19;;;;;;;75.43;30.45;;;2.40;99.90;;;;;;5027976;28;20105;-76
2021/12/23 09:47:47;;;;;;;84.05;32.40;;;2.50;99.90;;;;;;5028815;28;20435;-76
2021/12/23 09:50:18;;;;;;;82.05;32.70;;;2.50;99.90;;;;;;5027780;28;20021;-76
2021/12/23 09:52:47;;;;;;;77.55;31.08;;;2.50;99.90;;;;;;5029015;28;20022;-76
2021/12/23 09:55:15;;;;;;;78.07;31.40;;;2.60;99.90;;;;;;5042811;28;20503;-75
2021/12/23 09:57:43;;;;;;;76.40;30.27;;;2.60;99.90;;;;;;5031030;28;20026;-75
2021/12/23 10:00:11;;;;;;;75.60;31.02;;;2.60;99.90;;;;;;5026171;28;20518;-75
2021/12/23 10:02:40;;;;;;;72.20;30.50;;;2.60;99.90;;;;;;5027183;28;20103;-76
2021/12/23 10:05:10;;;;;;;80.65;30.67;;;2.70;99.90;;;;;;5027197;28;20037;-75
2021/12/23 10:07:35;;;;;;;74.03;30.48;;;2.70;99.90;;;;;;5027393;28;20040;-76
2021/12/23 10:10:11;;;;;;;73.85;29.83;;;2.70;99.90;;;;;;5027154;28;20374;-76
2021/12/23 10:32:35;;;;;;;70.72;29.98;;;2.90;99.90;;;;;;4988556;28;20435;-75
2021/12/23 10:38:27;;;;;;;69.32;28.20;;;3.00;99.90;;;;;;4989687;28;20065;-75
2021/12/23 10:40:56;;;;;;;73.72;29.92;;;3.00;99.90;;;;;;4990741;28;20037;-75
2021/12/23 10:43:32;;;;;;;80.40;29.05;;;3.10;99.90;;;;;;5007888;28;20046;-75
2021/12/23 10:46:02;;;;;;;69.07;29.50;;;3.10;99.90;;;;;;4987875;28;20117;-75
2021/12/23 10:48:31;;;;;;;69.47;29.52;;;3.10;99.90;;;;;;4988075;28;20031;-75
2021/12/23 10:51:05;;;;;;;72.00;29.35;;;3.20;99.90;;;;;;5000552;28;20041;-75
2021/12/23 10:59:02;;;;;;;70.20;28.48;;;3.30;99.90;;;;;;5007852;28;20596;-76
2021/12/23 11:01:28;;;;;;;67.72;27.92;;;3.40;99.90;;;;;;5007490;28;20113;-76
2021/12/23 11:04:04;;;;;;;71.68;30.52;;;3.40;99.90;;;;;;5021277;28;20435;-75
2021/12/23 11:06:45;;;;;;;70.68;29.67;;;3.50;99.90;;;;;;5047661;28;20029;-76
2021/12/23 11:37:47;;;;;;;60.60;27.98;;;3.90;99.90;;;;;;5034499;28;20051;-75
2021/12/23 11:40:26;;;;;;;63.93;28.80;;;3.90;99.90;;;;;;5035958;28;20018;-76
2021/12/23 11:45:32;;;;;;;59.78;27.55;;;4.00;99.90;;;;;;5030837;28;20402;-75
2021/12/23 11:47:58;;;;;;;63.15;29.33;;;4.00;99.90;;;;;;5034252;28;20478;-75
2021/12/23 11:50:32;;;;;;;66.75;27.77;;;4.10;99.90;;;;;;5038325;28;20046;-75
2021/12/23 11:52:58;;;;;;;65.90;28.23;;;4.10;99.90;;;;;;5035224;28;20391;-75
2021/12/23 11:55:24;;;;;;;65.00;29.13;;;4.20;99.90;;;;;;5034388;28;20021;-75
2021/12/23 11:57:52;;;;;;;63.35;27.48;;;4.20;99.90;;;;;;5040169;27;20028;-75
2021/12/23 12:00:29;;;;;;;67.00;28.08;;;4.20;99.90;;;;;;5032424;28;20048;-74
2021/12/23 12:03:03;;;;;;;62.30;27.25;;;4.20;99.90;;;;;;5036197;28;20432;-75
2021/12/23 12:05:30;;;;;;;61.05;27.10;;;4.20;99.90;;;;;;5035722;28;20489;-75
2021/12/23 12:08:04;;;;;;;59.63;26.90;;;4.20;99.90;;;;;;5036032;28;20117;-76
2021/12/23 12:10:32;;;;;;;67.10;28.13;;;4.30;99.90;;;;;;5053954;27;20043;-75
2021/12/23 12:13:04;;;;;;;62.60;27.73;;;4.30;99.90;;;;;;5034804;27;20029;-75
2021/12/23 12:15:39;;;;;;;68.65;28.73;;;4.20;99.90;;;;;;5040043;28;20025;-75
2021/12/23 12:18:07;;;;;;;44.30;20.73;;;4.30;99.90;;;;;;5047893;27;20471;-75
2021/12/23 12:20:38;;;;;;;56.35;26.33;;;4.30;99.90;;;;;;5031179;28;20053;-75
2021/12/23 12:23:24;;;;;;;65.30;28.48;;;4.30;99.90;;;;;;5042882;28;20029;-75
2021/12/23 12:25:56;;;;;;;62.85;27.23;;;4.30;99.90;;;;;;5038787;28;20025;-75
2021/12/23 12:28:32;;;;;;;65.30;28.20;;;4.40;99.90;;;;;;5035493;28;20025;-76
2021/12/23 12:31:20;;;;;;;59.53;26.98;;;4.40;99.90;;;;;;5038558;28;20137;-76
2021/12/23 12:33:57;;;;;;;60.50;27.42;;;4.50;99.90;;;;;;5041258;27;20051;-75
2021/12/23 12:36:24;;;;;;;58.40;27.60;;;4.50;99.90;;;;;;5041069;28;20547;-75
2021/12/23 12:38:57;;;;;;;65.70;29.23;;;4.60;99.90;;;;;;5038228;28;20386;-76
2021/12/23 12:41:35;;;;;;;63.45;28.17;;;4.60;99.90;;;;;;5043414;28;20053;-76
2021/12/23 12:44:35;;;;;;;60.88;27.92;;;4.70;99.90;;;;;;5034950;28;20138;-75
2021/12/23 12:47:13;;;;;;;60.80;28.00;;;4.80;99.90;;;;;;5040171;28;20025;-76
2021/12/23 12:49:47;;;;;;;63.78;28.00;;;4.80;99.90;;;;;;5038649;28;20025;-76
2021/12/23 12:52:31;;;;;;;60.65;28.10;;;4.80;99.90;;;;;;5046713;28;20025;-76
2021/12/23 12:54:59;;;;;;;64.07;28.15;;;4.80;99.90;;;;;;5036599;28;20070;-76
2021/12/23 12:57:34;;;;;;;59.53;27.25;;;4.80;99.90;;;;;;5040934;28;20025;-75
2021/12/23 13:00:19;;;;;;;61.28;28.58;;;4.80;99.90;;;;;;5035889;28;20033;-76
2021/12/23 13:02:54;;;;;;;59.28;27.75;;;4.80;99.90;;;;;;5036694;28;20427;-75
2021/12/23 13:05:31;;;;;;;;;;;4.80;99.90;;;;;;5037852;27;20034;-77
2021/12/23 13:07:57;;;;;;;60.72;27.70;;;4.80;99.90;;;;;;5041038;28;20289;-77
2021/12/23 13:10:31;;;;;;;60.17;29.20;;;4.90;99.90;;;;;;5040341;28;20498;-76
2021/12/23 13:13:01;;;;;;;60.05;27.33;;;4.90;99.90;;;;;;5037388;28;20037;-76
2021/12/23 13:15:29;;;;;;;62.28;27.80;;;4.90;99.90;;;;;;5034654;28;20026;-76
2021/12/23 13:17:57;;;;;;;61.08;27.92;;;4.90;99.90;;;;;;5028807;28;20030;-76
2021/12/23 13:20:43;;;;;;;56.63;27.10;;;4.90;99.90;;;;;;5028718;28;20017;-76
2021/12/23 13:23:14;;;;;;;58.72;28.23;;;4.90;99.90;;;;;;5033611;28;20033;-76
2021/12/23 13:25:51;;;;;;;59.15;27.23;;;4.90;99.90;;;;;;5039204;28;20021;-76
2021/12/23 13:28:43;;;;;;;59.63;28.17;;;4.90;99.90;;;;;;5029478;28;20021;-76
2021/12/23 13:31:21;;;;;;;60.08;26.70;;;4.90;99.90;;;;;;5044102;28;20033;-75
2021/12/23 13:33:49;;;;;;;60.72;27.38;;;4.80;99.90;;;;;;5046093;28;20022;-75
2021/12/23 13:36:28;;;;;;;61.50;29.20;;;4.80;99.90;;;;;;5048583;28;20047;-76
2021/12/23 13:38:56;;;;;;;57.78;27.05;;;4.80;99.90;;;;;;5035908;28;20125;-76
2021/12/23 13:41:27;;;;;;;57.38;28.30;;;4.80;99.90;;;;;;5028389;28;20053;-76
2021/12/23 13:44:13;;;;;;;58.33;28.92;;;4.80;99.90;;;;;;5027277;28;20056;-76
2021/12/23 13:46:40;;;;;;;59.22;28.63;;;4.80;99.90;;;;;;5036116;28;20031;-76
2021/12/23 13:49:06;;;;;;;62.17;29.13;;;4.70;99.90;;;;;;5045513;28;20025;-77
2021/12/23 13:51:35;;;;;;;57.63;28.63;;;4.70;99.90;;;;;;5035586;28;20043;-76
2021/12/23 13:54:13;;;;;;;67.25;30.75;;;4.70;99.90;;;;;;5048643;28;20052;-76
2021/12/23 13:56:42;;;;;;;64.78;30.23;;;4.70;99.90;;;;;;5040227;28;20442;-76